DW6157 Larvik NO current weather conditions

sailwx.info

Wind from 233

Air temperature 11.7° C
Dewpoint 9.4° C

Last reported at 2019-Aug-22 03:01 UTC.
Time now 2019-Aug-22 03:20 UTC

Location: N 59°05' E 010°08'.
View on Google Maps.

See reports from other nearby stations

  
Tides and Currents Weather Stations Pressure Air Temp Water Temp Dewpoint Dewpoint Depression Visibility Wind Speed Wind Dir Waves Ship Positions
date/time (UTC)wind fromknots sea level pressurealtimeterstation pressurevisibilityair tempwater tempwave heightnotes
2019-Aug-22 03:01 233 11.7
2019-Aug-22 02:46 238 11.7
2019-Aug-22 02:31 264 11.7
2019-Aug-22 02:16 263 11.7
2019-Aug-22 02:00 264 11.7
2019-Aug-22 01:46 264 11.7
2019-Aug-22 01:31 286 11.7
2019-Aug-22 01:16 229 0 gusting 3 11.7
2019-Aug-22 01:00 210 0 gusting 5 11.7
2019-Aug-22 00:45 247 0 gusting 3 11.7
2019-Aug-22 00:30 284 11.7
2019-Aug-22 00:15 232 11.7
2019-Aug-22 00:01 232 12.2
2019-Aug-21 23:45 256 0 gusting 3 12.2
2019-Aug-21 23:30 253 12.2
2019-Aug-21 23:15 253 12.8
2019-Aug-21 23:00 244 12.8
2019-Aug-21 22:45 256 13.3
2019-Aug-21 22:30 286 0 gusting 3 13.3
2019-Aug-21 22:15 287 13.3
2019-Aug-21 22:00 314 0 gusting 5 13.3
2019-Aug-21 21:47 256 13.3
2019-Aug-21 21:33 220 13.3
2019-Aug-21 21:17 216 13.9
2019-Aug-21 21:01 247 13.9
2019-Aug-21 20:46 263 14.4
2019-Aug-21 20:31 219 15.0
2019-Aug-21 20:17 222 15.0
2019-Aug-21 20:02 269 15.6
2019-Aug-21 19:46 210 15.6
2019-Aug-21 19:31 224 15.6
2019-Aug-21 19:16 231 1 gusting 6 16.1
2019-Aug-21 19:01 218 0 gusting 6 16.1
2019-Aug-21 18:46 287 1 gusting 6 16.7
2019-Aug-21 18:32 241 1 gusting 5 16.7
2019-Aug-21 18:17 225 0 gusting 5 17.2
2019-Aug-21 18:02 210 1 gusting 7 17.2
2019-Aug-21 17:46 210 1 gusting 7 17.8
2019-Aug-21 17:31 205 1 gusting 6 18.3
2019-Aug-21 17:16 210 1 gusting 9 18.3
2019-Aug-21 17:01 220 5 gusting 10 18.9
2019-Aug-21 16:47 214 2 gusting 6 18.9
2019-Aug-21 16:31 217 4 gusting 13 18.9
2019-Aug-21 16:16 196 4 gusting 10 19.4
2019-Aug-21 16:01 205 4 gusting 8 19.4
2019-Aug-21 15:46 200 4 gusting 9 19.4
2019-Aug-21 15:31 251 6 gusting 11 19.4
2019-Aug-21 15:16 177 3 gusting 11 20.0
2019-Aug-21 15:01 236 5 gusting 12 20.0
2019-Aug-21 14:46 238 5 gusting 13 20.0
2019-Aug-21 14:31 255 5 gusting 11 20.6
2019-Aug-21 14:16 210 3 gusting 9 20.6
2019-Aug-21 14:01 231 4 gusting 10 20.0
2019-Aug-21 13:46 200 4 gusting 10 20.0
2019-Aug-21 13:31 225 4 gusting 11 20.0
2019-Aug-21 13:15 193 6 gusting 13 19.4
2019-Aug-21 13:00 205 5 gusting 13 20.0
2019-Aug-21 12:45 210 5 gusting 12 20.0
2019-Aug-21 12:31 200 6 gusting 11 20.0
2019-Aug-21 12:16 219 5 gusting 13 19.4
2019-Aug-21 12:00 184 4 gusting 10 19.4
2019-Aug-21 11:45 166 5 gusting 10 20.0
2019-Aug-21 11:31 191 4 gusting 9 20.6
2019-Aug-21 11:15 183 5 gusting 10 20.6
2019-Aug-21 11:00 183 5 gusting 9 21.1
2019-Aug-21 10:46 220 3 gusting 9 20.6
2019-Aug-21 10:31 210 1 gusting 6 20.6
2019-Aug-21 10:15 216 1 gusting 5 20.6
2019-Aug-21 10:00 281 0 gusting 4 20.6
2019-Aug-21 09:45 200 20.6
2019-Aug-21 09:30 191 0 gusting 4 19.4
2019-Aug-21 09:15 294 19.4
2019-Aug-21 09:00 301 18.9
2019-Aug-21 08:45 338 18.9
2019-Aug-21 08:30 312 18.3
2019-Aug-21 08:16 349 17.8
2019-Aug-21 08:01 263 16.7
2019-Aug-21 07:46 306 16.1
2019-Aug-21 07:32 324 16.1
2019-Aug-21 07:16 312 15.6
2019-Aug-21 07:01 317 15.0
2019-Aug-21 06:47 254 13.9
2019-Aug-21 06:31 283 13.3
2019-Aug-21 06:16 289 12.8
2019-Aug-21 06:00 289 12.2
2019-Aug-21 05:47 286 11.7
2019-Aug-21 05:31 269 11.1
2019-Aug-21 05:16 270 10.6
2019-Aug-21 05:01 214 10.0
2019-Aug-21 04:45 214 10.0
2019-Aug-21 04:30 214 10.0
2019-Aug-21 04:15 214 10.0
2019-Aug-21 04:00 210 10.0
2019-Aug-21 03:45 210 10.0
2019-Aug-21 03:30 210 10.6
2019-Aug-21 03:15 210 10.6
2019-Aug-21 03:00 210 10.0
2019-Aug-21 02:46 210 10.0
2019-Aug-21 02:30 210 10.6
2019-Aug-21 02:15 210 10.6
2019-Aug-21 02:00 210 10.6
2019-Aug-21 01:45 210 11.1
2019-Aug-21 01:30 210 11.1
2019-Aug-21 01:15 210 11.7
2019-Aug-21 01:00 205 11.7
2019-Aug-21 00:49 210 11.7
2019-Aug-21 00:31 210 11.7
2019-Aug-21 00:16 210 12.2
2019-Aug-21 00:02 222 12.2
2019-Aug-20 23:46 225 0 gusting 3 12.2
2019-Aug-20 23:31 219 0 gusting 3 12.2
2019-Aug-20 23:17 232 12.8
2019-Aug-20 23:02 250 12.8
2019-Aug-20 22:46 266 12.8
2019-Aug-20 22:31 247 13.3
2019-Aug-20 22:16 235 13.3
2019-Aug-20 22:02 266 13.9
2019-Aug-20 21:46 214 0 gusting 4 13.9
2019-Aug-20 21:30 235 13.9
2019-Aug-20 21:16 241 0 gusting 4 14.4
2019-Aug-20 21:01 253 14.4
2019-Aug-20 20:46 276 14.4
2019-Aug-20 20:31 235 15.0
2019-Aug-20 20:16 226 15.0
2019-Aug-20 20:01 210 0 gusting 5 15.0
2019-Aug-20 19:46 216 15.6
2019-Aug-20 19:31 239 15.6
2019-Aug-20 19:15 210 0 gusting 6 15.6
2019-Aug-20 19:00 236 1 gusting 6 16.1
2019-Aug-20 18:45 205 2 gusting 6 16.1
2019-Aug-20 18:31 229 2 gusting 9 16.1
2019-Aug-20 18:15 210 3 gusting 8 16.7
2019-Aug-20 18:00 186 4 gusting 9 16.7
2019-Aug-20 17:45 175 3 gusting 8 17.2
2019-Aug-20 17:32 172 3 gusting 11 17.2
2019-Aug-20 17:15 205 4 gusting 11 17.8
2019-Aug-20 17:00 185 3 gusting 12 17.8
2019-Aug-20 16:45 219 6 gusting 13 17.8
2019-Aug-20 16:30 217 7 gusting 13 17.8
2019-Aug-20 16:15 205 6 gusting 13 18.9
2019-Aug-20 16:00 191 6 gusting 12 18.9
2019-Aug-20 15:45 205 6 gusting 14 18.9
2019-Aug-20 15:30 229 6 gusting 12 19.4
2019-Aug-20 15:15 218 6 gusting 13 19.4
2019-Aug-20 15:00 210 4 gusting 13 18.9
2019-Aug-20 14:45 232 6 gusting 12 19.4
2019-Aug-20 14:30 193 5 gusting 13 19.4
2019-Aug-20 14:15 223 4 gusting 15 18.9
2019-Aug-20 14:00 200 6 gusting 13 18.9
2019-Aug-20 13:46 183 3 gusting 9 18.3
2019-Aug-20 13:31 221 2 gusting 9 17.8
2019-Aug-20 13:16 210 5 gusting 9 18.3
2019-Aug-20 13:02 177 6 gusting 13 18.3
2019-Aug-20 12:46 239 3 gusting 16 18.9
2019-Aug-20 12:31 200 4 gusting 17 20.0
2019-Aug-20 12:16 245 6 gusting 13 19.4
2019-Aug-20 12:01 239 7 gusting 17 19.4
2019-Aug-20 11:47 210 6 gusting 13 18.9
2019-Aug-20 11:31 181 4 gusting 14 18.3
2019-Aug-20 11:16 221 6 gusting 11 18.9
2019-Aug-20 11:02 224 6 gusting 13 18.9
2019-Aug-20 10:46 210 6 gusting 13 19.4
2019-Aug-20 10:32 233 6 gusting 14 19.4
2019-Aug-20 10:16 229 6 gusting 14 19.4
2019-Aug-20 10:01 223 6 gusting 14 19.4
2019-Aug-20 09:46 189 8 gusting 13 19.4
2019-Aug-20 09:31 205 5 gusting 15 17.8
2019-Aug-20 09:15 223 3 gusting 11 17.8
2019-Aug-20 09:00 252 3 gusting 11 17.2
2019-Aug-20 08:46 215 1 gusting 8 17.2
2019-Aug-20 08:31 231 2 gusting 10 17.8
2019-Aug-20 08:16 223 2 gusting 8 18.3
2019-Aug-20 08:00 200 3 gusting 10 18.9
2019-Aug-20 07:46 189 2 gusting 8 18.9
2019-Aug-20 07:30 222 3 gusting 8 18.3
2019-Aug-20 07:16 210 2 gusting 7 17.8
2019-Aug-20 07:00 249 2 gusting 7 17.2
2019-Aug-20 06:45 249 0 gusting 8 16.7
2019-Aug-20 06:30 295 0 gusting 8 16.7
2019-Aug-20 06:15 256 0 gusting 7 16.1
2019-Aug-20 06:00 210 1 gusting 6 16.1
2019-Aug-20 05:45 233 0 gusting 5 15.6
2019-Aug-20 05:31 217 0 gusting 7 15.0
2019-Aug-20 05:16 210 1 gusting 8 14.4
2019-Aug-20 05:01 216 0 gusting 5 13.9
2019-Aug-20 04:46 229 0 gusting 5 13.3
2019-Aug-20 04:32 260 12.8
2019-Aug-20 04:16 229 12.2
2019-Aug-20 04:01 221 12.2
2019-Aug-20 03:46 243 12.2
2019-Aug-20 03:31 241 12.8
2019-Aug-20 03:16 216 12.8
2019-Aug-20 03:01 237 12.8